Castle Valley, Utah
Current Conditions -  °F | °C
As of 2:53 AM on Sunday 23 Nov 2014 (Local Time) from KCNY Reporting Station
Clear Clear  
Wind Chill: -3°   Ceiling: Unl
Heat Index:   Visibility: 10mi
Dew Point: -1°   Wind: 7mph
Humidity: 89%   Direction: 300°WNW
Pressure: 29.86"   Gusts: NA
Location:  38.6903°N, 109.256°W
Report Text: KCNY 230953Z AUTO 30006KT 10SM CLR 01/M01 A2986 RMK AO2 SLP107 T00061011
Loading
Personal Weather Stations






























Interactive Weather Map New forecast layout! Learn more

10-Day Weather Forecast

Advertisements
Track Severe Weather on mobile